createdAt,value
2019-03-03T00:00:26.840Z,81.70
2019-03-03T00:02:55.188Z,81.70
2019-03-03T00:05:23.480Z,81.80
2019-03-03T00:07:51.781Z,81.80
2019-03-03T00:10:20.049Z,81.90
2019-03-03T00:12:48.353Z,81.50
2019-03-03T00:15:16.898Z,81.80
2019-03-03T00:17:45.160Z,82.10
2019-03-03T00:20:15.060Z,82.10
2019-03-03T00:22:43.653Z,81.90
2019-03-03T00:25:13.266Z,81.80
2019-03-03T00:27:41.669Z,82.00
2019-03-03T00:30:16.994Z,82.80
2019-03-03T00:32:45.287Z,83.30
2019-03-03T00:35:13.591Z,84.10
2019-03-03T00:37:55.570Z,83.60
2019-03-03T00:40:40.721Z,83.90
2019-03-03T00:43:13.847Z,84.10
2019-03-03T00:45:49.935Z,84.20
2019-03-03T00:48:34.966Z,84.70
2019-03-03T00:51:10.494Z,83.90
2019-03-03T00:53:43.235Z,83.70
2019-03-03T00:56:13.146Z,83.60
2019-03-03T00:58:43.083Z,84.00
2019-03-03T01:01:13.071Z,84.10
2019-03-03T01:03:43.259Z,84.10
2019-03-03T01:06:13.177Z,84.20
2019-03-03T01:08:49.087Z,84.10
2019-03-03T01:11:21.953Z,84.20
2019-03-03T01:13:55.698Z,84.10
2019-03-03T01:16:43.983Z,84.10
2019-03-03T01:19:29.941Z,84.30
2019-03-03T01:22:02.601Z,85.10
2019-03-03T01:24:48.751Z,84.40
2019-03-03T01:27:17.081Z,84.30
2019-03-03T01:29:45.353Z,84.20
2019-03-03T01:32:13.613Z,84.50
2019-03-03T01:34:41.917Z,85.10
2019-03-03T01:37:10.183Z,85.00
2019-03-03T01:39:38.745Z,84.70
2019-03-03T01:42:07.026Z,84.50
2019-03-03T01:44:35.275Z,84.70
2019-03-03T01:47:03.565Z,85.00
2019-03-03T01:49:31.888Z,84.90
2019-03-03T01:52:00.187Z,84.70
2019-03-03T01:54:28.548Z,85.10
2019-03-03T01:56:56.871Z,84.80
2019-03-03T01:59:25.234Z,85.20
2019-03-03T02:01:53.533Z,85.20
2019-03-03T02:04:21.908Z,85.00
2019-03-03T02:06:50.198Z,85.40
2019-03-03T02:09:18.521Z,85.30
2019-03-03T02:11:47.131Z,85.30
2019-03-03T02:14:15.380Z,85.40
2019-03-03T02:16:43.709Z,85.70
2019-03-03T02:19:12.052Z,85.40
2019-03-03T02:21:40.350Z,85.50
2019-03-03T02:24:08.714Z,85.80
2019-03-03T02:26:37.314Z,85.70
2019-03-03T02:29:06.086Z,85.80
2019-03-03T02:31:34.433Z,86.00
2019-03-03T02:34:02.711Z,85.60
2019-03-03T02:36:31.385Z,85.70
2019-03-03T02:38:59.673Z,86.00
2019-03-03T02:41:28.013Z,85.60
2019-03-03T02:43:56.350Z,85.80
2019-03-03T02:46:25.037Z,86.00
2019-03-03T02:48:53.431Z,86.10
2019-03-03T02:51:21.749Z,86.10
2019-03-03T02:53:50.043Z,86.30
2019-03-03T02:56:18.338Z,86.00
2019-03-03T02:58:46.683Z,86.40
2019-03-03T03:01:16.659Z,86.70
2019-03-03T03:03:45.313Z,86.90
2019-03-03T03:06:21.079Z,87.00
2019-03-03T03:09:06.864Z,86.80
2019-03-03T03:11:37.290Z,86.60
2019-03-03T03:14:10.234Z,86.70
2019-03-03T03:16:46.121Z,86.40
2019-03-03T03:19:16.061Z,86.60
2019-03-03T03:22:02.166Z,86.50
2019-03-03T03:24:34.967Z,86.50
2019-03-03T03:27:07.227Z,86.50
2019-03-03T03:29:39.306Z,86.60
2019-03-03T03:32:09.233Z,86.60
2019-03-03T03:34:50.939Z,86.50
2019-03-03T03:37:23.521Z,86.40
2019-03-03T03:39:53.849Z,86.20
2019-03-03T03:42:23.842Z,86.40
2019-03-03T03:45:05.859Z,86.40
2019-03-03T03:47:39.101Z,86.80
2019-03-03T03:50:26.105Z,86.40
2019-03-03T03:53:14.566Z,86.40
2019-03-03T03:55:47.445Z,86.40
2019-03-03T03:58:17.364Z,86.50
2019-03-03T04:00:50.054Z,86.90
2019-03-03T04:03:32.330Z,86.80
2019-03-03T04:06:20.665Z,86.90
2019-03-03T04:08:50.604Z,86.50
2019-03-03T04:11:37.022Z,86.80
2019-03-03T04:14:12.794Z,86.60
2019-03-03T04:16:48.862Z,87.20
2019-03-03T04:19:19.089Z,87.30
2019-03-03T04:21:49.055Z,87.00
2019-03-03T04:24:19.022Z,87.30
2019-03-03T04:26:49.017Z,87.00
2019-03-03T04:29:18.959Z,87.00
2019-03-03T04:31:57.973Z,87.40
2019-03-03T04:34:30.736Z,87.10
2019-03-03T04:37:00.699Z,87.60
2019-03-03T04:39:30.726Z,87.70
2019-03-03T04:42:09.863Z,87.60
2019-03-03T04:44:42.895Z,87.50
2019-03-03T04:47:15.396Z,87.70
2019-03-03T04:49:48.189Z,87.80
2019-03-03T04:52:23.955Z,87.90
2019-03-03T04:54:53.928Z,88.40
2019-03-03T04:57:40.283Z,88.50
2019-03-03T05:00:29.071Z,88.50
2019-03-03T05:03:01.774Z,88.50
2019-03-03T05:05:34.639Z,88.50
2019-03-03T05:08:13.870Z,88.30
2019-03-03T05:10:43.797Z,88.30
2019-03-03T05:13:16.473Z,88.00
2019-03-03T05:15:46.417Z,88.20
2019-03-03T05:18:19.052Z,88.90
2019-03-03T05:20:48.971Z,88.20
2019-03-03T05:23:17.267Z,88.20
2019-03-03T05:25:45.619Z,88.20
2019-03-03T05:28:13.978Z,88.20
2019-03-03T05:30:42.689Z,88.50
2019-03-03T05:33:11.041Z,88.40
2019-03-03T05:35:39.349Z,88.20
2019-03-03T05:38:07.715Z,88.40
2019-03-03T05:40:36.123Z,88.10
2019-03-03T05:43:04.873Z,88.40
2019-03-03T05:45:33.143Z,88.50
2019-03-03T05:48:01.442Z,89.40
2019-03-03T05:50:29.995Z,90.20
2019-03-03T05:52:58.287Z,90.40
2019-03-03T05:55:26.694Z,90.50
2019-03-03T05:57:54.965Z,90.70
2019-03-03T06:00:23.252Z,90.90
2019-03-03T06:02:51.630Z,90.70
2019-03-03T06:05:19.975Z,90.50
2019-03-03T06:07:48.262Z,90.80
2019-03-03T06:10:16.622Z,90.70
2019-03-03T06:12:44.912Z,90.90
2019-03-03T06:15:14.585Z,90.80
2019-03-03T06:17:43.138Z,90.60
2019-03-03T06:20:12.155Z,90.60
2019-03-03T06:22:40.470Z,90.70
2019-03-03T06:25:10.079Z,90.60
2019-03-03T06:27:38.400Z,90.70
2019-03-03T06:30:10.195Z,90.40
2019-03-03T06:32:38.492Z,90.80
2019-03-03T06:35:08.440Z,91.10
2019-03-03T06:37:36.729Z,91.10
2019-03-03T06:40:07.564Z,91.30
2019-03-03T06:42:38.947Z,91.70
2019-03-03T06:45:13.918Z,92.10
2019-03-03T06:47:42.290Z,92.30
2019-03-03T06:50:12.006Z,92.60
2019-03-03T06:52:40.390Z,92.60
2019-03-03T06:55:09.376Z,92.70
2019-03-03T06:57:37.795Z,92.80
2019-03-03T07:00:14.609Z,92.50
2019-03-03T07:02:43.188Z,92.60
2019-03-03T07:05:11.628Z,92.50
2019-03-03T07:07:40.089Z,92.60
2019-03-03T07:10:10.892Z,92.50
2019-03-03T07:12:39.520Z,92.50
2019-03-03T07:15:16.950Z,92.60
2019-03-03T07:17:45.476Z,92.50
2019-03-03T07:20:15.678Z,92.40
2019-03-03T07:22:45.584Z,92.50
2019-03-03T07:25:14.466Z,92.60
2019-03-03T07:27:42.869Z,92.80
2019-03-03T07:30:15.882Z,92.80
2019-03-03T07:32:45.874Z,93.00
2019-03-03T07:35:14.320Z,92.80
2019-03-03T07:37:42.684Z,92.70
2019-03-03T07:40:12.511Z,92.70
2019-03-03T07:42:43.182Z,92.70
2019-03-03T07:45:15.402Z,92.90
2019-03-03T07:47:43.754Z,92.90
2019-03-03T07:50:12.142Z,93.10
2019-03-03T07:52:40.424Z,92.90
2019-03-03T07:55:10.037Z,92.90
2019-03-03T07:57:38.422Z,92.70
2019-03-03T08:00:13.663Z,92.70
2019-03-03T08:02:42.009Z,92.60
2019-03-03T08:05:11.196Z,92.70
2019-03-03T08:07:39.465Z,92.70
2019-03-03T08:10:12.011Z,92.80
2019-03-03T08:12:40.389Z,92.70
2019-03-03T08:15:11.444Z,92.50
2019-03-03T08:17:39.849Z,92.60
2019-03-03T08:20:12.223Z,92.60
2019-03-03T08:22:40.649Z,92.50
2019-03-03T08:25:15.502Z,92.70
2019-03-03T08:27:44.138Z,93.20
2019-03-03T08:30:17.707Z,92.80
2019-03-03T08:32:47.729Z,92.90
2019-03-03T08:35:21.474Z,92.70
2019-03-03T08:37:49.815Z,92.80
2019-03-03T08:40:18.515Z,93.10
2019-03-03T08:42:54.177Z,93.10
2019-03-03T08:45:27.190Z,93.00
2019-03-03T08:48:11.966Z,92.90
2019-03-03T08:50:41.985Z,93.00
2019-03-03T08:53:14.944Z,93.30
2019-03-03T08:56:01.426Z,93.20
2019-03-03T08:58:37.440Z,93.40
2019-03-03T09:01:18.535Z,93.20
2019-03-03T09:03:54.193Z,93.20
2019-03-03T09:06:33.583Z,93.30
2019-03-03T09:09:15.749Z,93.00
2019-03-03T09:12:02.058Z,93.00
2019-03-03T09:14:48.439Z,92.80
2019-03-03T09:17:21.317Z,93.00
2019-03-03T09:20:07.881Z,92.80
2019-03-03T09:22:47.008Z,92.70
2019-03-03T09:25:19.901Z,92.30
2019-03-03T09:27:57.243Z,92.50
2019-03-03T09:30:27.338Z,92.80
2019-03-03T09:33:14.017Z,92.80
2019-03-03T09:35:56.446Z,92.80
2019-03-03T09:38:26.675Z,92.40
2019-03-03T09:40:56.639Z,92.30
2019-03-03T09:43:31.293Z,92.20
2019-03-03T09:46:13.095Z,92.20
2019-03-03T09:48:51.897Z,92.60
2019-03-03T09:51:24.529Z,92.30
2019-03-03T09:54:06.714Z,92.30
2019-03-03T09:56:45.692Z,92.20
2019-03-03T09:59:30.909Z,92.60
2019-03-03T10:02:00.955Z,92.60
2019-03-03T10:04:47.324Z,92.40
2019-03-03T10:07:17.256Z,92.30
2019-03-03T10:10:03.426Z,92.30
2019-03-03T10:12:33.423Z,92.00
2019-03-03T10:15:06.195Z,91.90
2019-03-03T10:17:36.178Z,92.00
2019-03-03T10:20:20.890Z,92.00
2019-03-03T10:23:07.122Z,91.90
2019-03-03T10:25:37.190Z,91.70
2019-03-03T10:28:13.066Z,91.60
2019-03-03T10:30:43.191Z,91.80
2019-03-03T10:33:29.425Z,91.50
2019-03-03T10:36:02.425Z,91.40
2019-03-03T10:38:36.273Z,91.50
2019-03-03T10:41:07.494Z,91.70
2019-03-03T10:43:40.980Z,91.40
2019-03-03T10:46:19.785Z,91.50
2019-03-03T10:48:52.512Z,91.60
2019-03-03T10:51:28.224Z,91.50
2019-03-03T10:54:10.022Z,91.40
2019-03-03T10:56:51.978Z,91.70
2019-03-03T10:59:29.468Z,91.90
2019-03-03T11:02:10.278Z,91.70
2019-03-03T11:04:37.398Z,91.50
2019-03-03T11:07:10.607Z,91.30
2019-03-03T11:09:43.185Z,91.20
2019-03-03T11:12:19.067Z,91.20
2019-03-03T11:14:49.071Z,91.70
2019-03-03T11:17:19.111Z,91.20
2019-03-03T11:20:05.161Z,91.30
2019-03-03T11:22:44.220Z,90.90
2019-03-03T11:25:18.560Z,90.90
2019-03-03T11:28:02.103Z,90.50
2019-03-03T11:30:32.176Z,90.80
2019-03-03T11:33:02.487Z,90.60
2019-03-03T11:35:41.537Z,90.50
2019-03-03T11:38:16.104Z,90.50
2019-03-03T11:40:48.459Z,90.50
2019-03-03T11:43:18.456Z,90.40
2019-03-03T11:45:54.402Z,90.00
2019-03-03T11:48:30.243Z,89.90
2019-03-03T11:51:00.353Z,89.80
2019-03-03T11:53:39.290Z,90.30
2019-03-03T11:56:21.284Z,89.40
2019-03-03T11:59:07.880Z,89.90
2019-03-03T12:01:54.382Z,89.60
2019-03-03T12:04:36.564Z,90.00
2019-03-03T12:07:22.458Z,90.30
2019-03-03T12:10:08.682Z,90.20
2019-03-03T12:12:55.188Z,90.10
2019-03-03T12:15:26.776Z,90.00
2019-03-03T12:17:56.908Z,89.50
2019-03-03T12:20:29.840Z,89.20
2019-03-03T12:23:00.496Z,89.70
2019-03-03T12:25:33.385Z,89.20
2019-03-03T12:28:06.092Z,89.00
2019-03-03T12:30:38.987Z,88.20
2019-03-03T12:33:09.052Z,89.20
2019-03-03T12:35:47.869Z,88.40
2019-03-03T12:38:20.642Z,88.40
2019-03-03T12:40:56.412Z,88.60
2019-03-03T12:43:34.761Z,88.60
2019-03-03T12:46:07.572Z,88.50
2019-03-03T12:48:53.408Z,88.30
2019-03-03T12:51:38.809Z,88.70
2019-03-03T12:54:10.411Z,88.10
2019-03-03T12:56:40.385Z,87.60
2019-03-03T12:59:22.305Z,87.30
2019-03-03T13:01:54.848Z,87.40
2019-03-03T13:04:41.030Z,87.00
2019-03-03T13:07:16.638Z,87.30
2019-03-03T13:09:46.616Z,86.50
2019-03-03T13:12:34.340Z,86.60
2019-03-03T13:15:07.463Z,86.30
2019-03-03T13:17:53.820Z,85.70
2019-03-03T13:20:32.434Z,85.80
2019-03-03T13:23:08.159Z,85.60
2019-03-03T13:25:45.679Z,83.80
2019-03-03T13:28:32.656Z,84.20
2019-03-03T13:31:14.632Z,84.40
2019-03-03T13:33:44.624Z,84.70
2019-03-03T13:36:14.633Z,84.10
2019-03-03T13:38:44.619Z,84.50
2019-03-03T13:41:14.598Z,83.60
2019-03-03T13:43:43.060Z,83.50
2019-03-03T13:46:11.422Z,83.70
2019-03-03T13:48:40.108Z,83.40
2019-03-03T13:51:08.623Z,83.60
2019-03-03T13:53:36.996Z,82.80
2019-03-03T13:56:05.469Z,82.60
2019-03-03T13:58:33.782Z,82.40
2019-03-03T14:01:02.188Z,81.80
2019-03-03T14:03:30.513Z,82.50
2019-03-03T14:05:58.868Z,83.60
2019-03-03T14:08:27.250Z,82.50
2019-03-03T14:10:55.737Z,82.10
2019-03-03T14:13:24.152Z,81.60
2019-03-03T14:15:52.755Z,81.20
2019-03-03T14:18:21.208Z,81.20
2019-03-03T14:20:49.564Z,81.60
2019-03-03T14:23:17.929Z,81.60
2019-03-03T14:25:46.316Z,82.10
2019-03-03T14:28:14.644Z,80.90
2019-03-03T14:30:43.079Z,81.50
2019-03-03T14:33:11.516Z,81.20
2019-03-03T14:35:39.854Z,81.70
2019-03-03T14:38:08.426Z,81.70
2019-03-03T14:40:36.787Z,81.00
2019-03-03T14:43:05.071Z,81.20
2019-03-03T14:45:33.428Z,80.50
2019-03-03T14:48:01.845Z,80.60
2019-03-03T14:50:30.233Z,80.60
2019-03-03T14:52:58.616Z,81.10
2019-03-03T14:55:27.118Z,80.50
2019-03-03T14:57:55.546Z,80.00
2019-03-03T15:00:27.118Z,80.00
2019-03-03T15:02:56.020Z,80.20
2019-03-03T15:05:24.375Z,80.00
2019-03-03T15:07:52.803Z,80.00
2019-03-03T15:10:21.213Z,80.00
2019-03-03T15:12:49.661Z,80.10
2019-03-03T15:15:23.723Z,80.50
2019-03-03T15:17:51.382Z,79.20
2019-03-03T15:20:19.731Z,80.80
2019-03-03T15:22:48.033Z,80.30
2019-03-03T15:25:16.395Z,80.20
2019-03-03T15:27:44.908Z,80.40
2019-03-03T15:30:16.460Z,80.30
2019-03-03T15:32:44.888Z,80.10
2019-03-03T15:35:13.221Z,80.40
2019-03-03T15:37:43.799Z,81.80
2019-03-03T15:40:17.589Z,80.30
2019-03-03T15:42:45.253Z,80.20
2019-03-03T15:45:16.119Z,80.50
2019-03-03T15:47:44.493Z,79.60
2019-03-03T15:50:13.158Z,80.20
2019-03-03T15:52:49.774Z,80.60
2019-03-03T15:55:26.756Z,80.20
2019-03-03T15:57:50.931Z,80.90
2019-03-03T16:00:29.731Z,80.40
2019-03-03T16:02:59.849Z,80.80
2019-03-03T16:05:30.046Z,80.80
2019-03-03T16:07:59.241Z,80.60
2019-03-03T16:10:31.231Z,80.70
2019-03-03T16:12:59.786Z,81.00
2019-03-03T16:15:31.283Z,80.80
2019-03-03T16:18:01.987Z,80.80
2019-03-03T16:20:30.374Z,80.70
2019-03-03T16:22:59.124Z,80.10
2019-03-03T16:25:29.257Z,80.00
2019-03-03T16:28:00.569Z,80.30
2019-03-03T16:30:29.252Z,79.80
2019-03-03T16:32:59.303Z,79.60
2019-03-03T16:35:28.981Z,80.10
2019-03-03T16:37:58.713Z,79.10
2019-03-03T16:40:39.273Z,79.50
2019-03-03T16:43:01.335Z,79.20
2019-03-03T16:45:32.000Z,79.40
2019-03-03T16:48:00.587Z,79.20
2019-03-03T16:50:31.297Z,79.50
2019-03-03T16:53:03.415Z,80.00
2019-03-03T16:55:35.275Z,79.50
2019-03-03T17:01:00.481Z,80.40
2019-03-03T17:03:29.156Z,81.10
2019-03-03T17:05:57.716Z,81.80
2019-03-03T17:08:30.349Z,81.10
2019-03-03T17:10:57.911Z,80.10
2019-03-03T17:13:26.354Z,79.90
2019-03-03T17:15:55.047Z,80.50
2019-03-03T17:18:23.697Z,80.90
2019-03-03T17:20:52.075Z,81.70
2019-03-03T17:23:43.529Z,82.00
2019-03-03T17:26:09.554Z,82.90
2019-03-03T17:28:40.633Z,82.20
2019-03-03T17:31:17.874Z,82.60
2019-03-03T17:33:46.351Z,83.60
2019-03-03T17:36:15.165Z,84.40
2019-03-03T17:38:43.654Z,83.30
2019-03-03T17:41:12.060Z,83.30
2019-03-03T17:49:04.644Z,84.20
2019-03-03T17:51:34.532Z,84.00
2019-03-03T17:54:04.492Z,84.10
2019-03-03T17:56:33.092Z,84.20
2019-03-03T17:59:06.070Z,83.40
2019-03-03T18:01:33.690Z,83.50
2019-03-03T18:04:02.270Z,82.80
2019-03-03T18:06:38.526Z,82.30
2019-03-03T18:09:02.790Z,82.10
2019-03-03T18:11:42.096Z,81.70
2019-03-03T18:14:08.240Z,82.10
2019-03-03T18:16:38.193Z,82.30
2019-03-03T18:19:11.662Z,82.80
2019-03-03T18:21:41.514Z,82.60
2019-03-03T18:24:12.981Z,82.50
2019-03-03T18:26:41.537Z,81.60
2019-03-03T18:29:11.449Z,81.00
2019-03-03T18:31:40.095Z,80.90
2019-03-03T18:34:22.348Z,80.30
2019-03-03T18:36:48.043Z,80.30
2019-03-03T18:39:24.349Z,80.70
2019-03-03T18:41:59.843Z,80.70
2019-03-03T18:44:29.381Z,80.20
2019-03-03T18:46:59.030Z,79.70
2019-03-03T18:49:29.592Z,79.80
2019-03-03T18:51:58.328Z,80.00
2019-03-03T18:54:45.787Z,80.00
2019-03-03T18:57:01.549Z,79.80
2019-03-03T18:59:31.882Z,79.60
2019-03-03T19:02:00.494Z,79.50
2019-03-03T19:04:28.945Z,79.70
2019-03-03T19:06:57.437Z,79.90
2019-03-03T19:09:25.801Z,80.00
2019-03-03T19:11:54.201Z,79.70
2019-03-03T19:14:28.295Z,79.80
2019-03-03T19:16:52.593Z,79.90
2019-03-03T19:19:20.940Z,80.30
2019-03-03T19:21:49.329Z,80.00
2019-03-03T19:24:19.078Z,79.70
2019-03-03T19:26:47.623Z,79.00
2019-03-03T19:29:18.449Z,79.00
2019-03-03T19:31:48.815Z,79.50
2019-03-03T19:34:17.270Z,79.30
2019-03-03T19:36:47.296Z,79.00
2019-03-03T19:39:16.761Z,79.40
2019-03-03T19:41:46.345Z,79.30
2019-03-03T19:44:15.070Z,79.40
2019-03-03T19:46:46.232Z,79.20
2019-03-03T19:49:14.555Z,78.80
2019-03-03T19:51:42.915Z,78.60
2019-03-03T19:54:11.476Z,78.90
2019-03-03T19:56:39.949Z,78.80
2019-03-03T19:59:15.075Z,79.20
2019-03-03T20:01:47.055Z,78.40
2019-03-03T20:04:16.053Z,78.80
2019-03-03T20:06:45.914Z,79.40
2019-03-03T20:09:18.174Z,79.60
2019-03-03T20:11:47.963Z,79.20
2019-03-03T20:14:24.341Z,78.90
2019-03-03T20:16:56.114Z,78.80
2019-03-03T20:19:26.686Z,79.30
2019-03-03T20:21:58.555Z,78.90
2019-03-03T20:24:29.673Z,79.10
2019-03-03T20:27:05.712Z,79.10
2019-03-03T20:29:40.465Z,78.90
2019-03-03T20:32:10.654Z,78.50
2019-03-03T20:34:40.085Z,78.70
2019-03-03T20:37:11.072Z,78.60
2019-03-03T20:39:42.165Z,78.60
2019-03-03T20:42:11.999Z,78.60
2019-03-03T20:44:40.269Z,79.20
2019-03-03T20:47:10.431Z,79.50
2019-03-03T20:49:41.456Z,79.50
2019-03-03T20:52:09.682Z,79.00
2019-03-03T20:54:38.534Z,79.70
2019-03-03T20:57:06.941Z,79.70
2019-03-03T20:59:35.308Z,80.00
2019-03-03T21:02:06.829Z,80.00
2019-03-03T21:04:35.180Z,80.30
2019-03-03T21:07:03.569Z,80.40
2019-03-03T21:09:31.951Z,80.30
2019-03-03T21:12:00.328Z,80.50
2019-03-03T21:14:28.779Z,80.80
2019-03-03T21:16:57.388Z,80.30
2019-03-03T21:19:25.839Z,80.40
2019-03-03T21:21:54.159Z,80.00
2019-03-03T21:24:22.498Z,80.00
2019-03-03T21:26:50.956Z,80.40
2019-03-03T21:29:19.340Z,80.50
2019-03-03T21:31:50.143Z,80.40
2019-03-03T21:34:18.236Z,80.10
2019-03-03T21:36:46.928Z,80.00
2019-03-03T21:39:16.070Z,80.50
2019-03-03T21:41:44.423Z,80.80
2019-03-03T21:44:12.793Z,80.70
2019-03-03T21:46:41.094Z,80.40
2019-03-03T21:49:09.395Z,80.30
2019-03-03T21:51:37.757Z,79.70
2019-03-03T21:54:06.161Z,79.80
2019-03-03T21:56:34.555Z,80.20
2019-03-03T21:59:02.954Z,80.00
2019-03-03T22:01:31.311Z,80.20
2019-03-03T22:03:59.698Z,80.00
2019-03-03T22:06:28.047Z,79.90
2019-03-03T22:08:56.435Z,79.50
2019-03-03T22:11:24.839Z,79.00
2019-03-03T22:13:53.169Z,79.10
2019-03-03T22:16:21.506Z,79.20
2019-03-03T22:18:50.334Z,79.20
2019-03-03T22:21:18.686Z,78.70
2019-03-03T22:23:47.327Z,78.60
2019-03-03T22:26:15.690Z,78.40
2019-03-03T22:28:44.344Z,78.10
2019-03-03T22:31:12.805Z,78.40
2019-03-03T22:33:41.243Z,78.30
2019-03-03T22:36:10.860Z,78.30
2019-03-03T22:38:39.238Z,78.10
2019-03-03T22:41:07.592Z,77.80
2019-03-03T22:43:35.962Z,77.50
2019-03-03T22:46:05.255Z,77.30
2019-03-03T22:48:33.594Z,76.60
2019-03-03T22:51:01.930Z,76.50
2019-03-03T22:53:30.394Z,76.40
2019-03-03T22:55:58.798Z,76.50
2019-03-03T22:58:27.251Z,76.50
2019-03-03T23:01:00.616Z,76.20
2019-03-03T23:03:43.966Z,76.20
2019-03-03T23:06:18.131Z,75.80
2019-03-03T23:08:58.722Z,75.80
2019-03-03T23:11:47.897Z,76.00
2019-03-03T23:14:22.591Z,75.50
2019-03-03T23:17:12.265Z,76.00
2019-03-03T23:19:43.896Z,75.70
2019-03-03T23:22:27.485Z,75.40
2019-03-03T23:25:11.134Z,75.60
2019-03-03T23:27:39.505Z,75.90
2019-03-03T23:30:08.741Z,75.90
2019-03-03T23:32:37.173Z,75.70
2019-03-03T23:35:06.451Z,75.90
2019-03-03T23:37:34.804Z,75.40
2019-03-03T23:40:03.175Z,75.80
2019-03-03T23:42:31.823Z,76.10
2019-03-03T23:45:00.288Z,76.10
2019-03-03T23:47:28.658Z,75.80
2019-03-03T23:49:56.989Z,76.10
2019-03-03T23:52:25.420Z,76.70
2019-03-03T23:54:53.769Z,76.00
2019-03-03T23:57:23.473Z,76.60
2019-03-03T23:59:52.035Z,76.90
